Time;durP1;ratioP1;P1;durP2;ratioP2;P2;SDS_P1;SDS_P2;PMS_P1;PMS_P2;Temp;Humidity;BMP_temperature;BMP_pressure;BME280_temperature;BME280_humidity;BME280_pressure;Samples;Min_cycle;Max_cycle;Signal;HPM_P1;HPM_P2
2021/11/29 00:01:25;;;;;;;56.90;28.50;;;;;;;1.73;81.75;97860.86;127026;1307;108769;-75
2021/11/29 00:04:30;;;;;;;61.20;30.80;;;;;;;1.68;82.04;97864.47;126823;1313;108818;-76
2021/11/29 00:07:35;;;;;;;46.40;23.70;;;;;;;1.65;82.34;97863.61;126906;1307;108658;-76
2021/11/29 00:10:42;;;;;;;56.90;28.50;;;;;;;1.66;82.56;97860.52;126745;1308;108707;-77
2021/11/29 00:13:48;;;;;;;47.60;25.40;;;;;;;1.64;82.46;97860.32;126576;1307;108881;-75
2021/11/29 00:16:53;;;;;;;51.30;26.10;;;;;;;1.67;82.06;97863.21;126761;1310;108673;-76
2021/11/29 00:19:58;;;;;;;55.90;27.90;;;;;;;1.80;82.03;97862.94;126934;1310;108893;-75
2021/11/29 00:23:04;;;;;;;55.00;26.60;;;;;;;1.81;82.02;97860.88;126806;1307;109152;-72
2021/11/29 00:26:09;;;;;;;49.90;24.40;;;;;;;1.74;82.21;97859.98;126703;1307;108836;-75
2021/11/29 00:29:15;;;;;;;49.60;25.10;;;;;;;1.71;82.28;97863.48;127058;1307;107644;-75
2021/11/29 00:32:20;;;;;;;50.20;26.10;;;;;;;1.75;82.68;97865.39;126997;1310;108786;-74
2021/11/29 00:35:26;;;;;;;50.00;26.80;;;;;;;1.71;82.36;97859.08;127022;1307;109089;-75
2021/11/29 00:38:31;;;;;;;53.40;26.20;;;;;;;1.66;82.69;97854.58;126989;1307;108781;-74
2021/11/29 00:41:37;;;;;;;52.00;26.90;;;;;;;1.61;82.85;97851.69;126906;1310;106633;-75
2021/11/29 00:44:42;;;;;;;46.20;24.40;;;;;;;1.57;82.71;97850.64;127016;1307;107326;-74
2021/11/29 00:47:48;;;;;;;45.40;23.60;;;;;;;1.60;82.85;97858.45;127047;1307;108883;-75
2021/11/29 00:50:54;;;;;;;47.20;23.70;;;;;;;1.61;82.79;97859.80;127011;1307;108902;-73
2021/11/29 00:54:00;;;;;;;46.00;22.30;;;;;;;1.67;82.72;97859.70;126832;1307;108877;-76
2021/11/29 00:57:06;;;;;;;43.90;22.60;;;;;;;1.76;82.40;97860.18;127064;1307;108806;-77
2021/11/29 01:00:15;;;;;;;43.00;22.60;;;;;;;1.87;82.31;97863.92;127066;1307;108794;-77
2021/11/29 01:03:21;;;;;;;47.90;24.10;;;;;;;1.89;82.16;97866.69;126995;1307;108662;-76
2021/11/29 01:06:26;;;;;;;49.60;25.30;;;;;;;1.84;82.14;97871.80;126786;1313;107910;-75
2021/11/29 01:09:31;;;;;;;43.10;22.10;;;;;;;1.86;82.25;97868.65;126998;1307;109520;-76
2021/11/29 01:12:38;;;;;;;39.20;21.20;;;;;;;1.90;82.11;97862.59;126898;1307;108771;-75
2021/11/29 01:15:45;;;;;;;38.30;20.60;;;;;;;1.90;82.14;97856.80;126731;1307;108826;-74
2021/11/29 01:18:51;;;;;;;37.70;20.40;;;;;;;1.93;82.17;97856.16;127005;1307;108662;-76
2021/11/29 01:21:56;;;;;;;38.50;20.80;;;;;;;1.94;82.07;97851.17;126624;1313;107485;-75
2021/11/29 01:25:02;;;;;;;38.50;20.80;;;;;;;1.86;82.06;97850.70;126731;1307;108609;-75
2021/11/29 01:28:08;;;;;;;43.30;21.50;;;;;;;1.81;82.34;97849.36;126793;1313;107471;-75
2021/11/29 01:31:14;;;;;;;39.90;20.40;;;;;;;1.74;82.16;97859.18;126765;1307;109117;-76
2021/11/29 01:34:19;;;;;;;37.20;17.70;;;;;;;1.71;82.51;97861.60;126913;1307;108893;-76
2021/11/29 01:37:25;;;;;;;40.60;20.70;;;;;;;1.74;82.63;97862.61;126642;1306;108791;-75
2021/11/29 01:40:31;;;;;;;38.10;19.90;;;;;;;1.69;82.72;97864.75;126601;1307;108771;-75
2021/11/29 01:43:36;;;;;;;35.70;19.20;;;;;;;1.69;82.53;97859.35;126765;1307;108810;-75
2021/11/29 01:46:42;;;;;;;44.00;21.60;;;;;;;1.70;82.56;97860.77;126709;1313;108791;-75
2021/11/29 01:49:48;;;;;;;43.10;21.20;;;;;;;1.65;82.55;97860.75;126858;1307;108745;-74
2021/11/29 01:52:54;;;;;;;32.60;16.90;;;;;;;1.59;82.70;97854.92;126824;1313;107441;-75
2021/11/29 01:56:01;;;;;;;38.40;19.00;;;;;;;1.55;82.89;97852.93;126613;1307;107299;-76
2021/11/29 01:59:07;;;;;;;37.80;18.70;;;;;;;1.55;83.13;97858.94;126901;1313;108815;-75
2021/11/29 02:02:14;;;;;;;34.20;18.00;;;;;;;1.49;83.01;97856.78;126708;1314;108715;-75
2021/11/29 02:05:21;;;;;;;38.40;19.50;;;;;;;1.49;83.07;97846.75;126560;1313;108794;-76
2021/11/29 02:08:26;;;;;;;34.70;18.80;;;;;;;1.52;83.04;97864.11;126693;1307;108766;-75
2021/11/29 02:11:32;;;;;;;32.60;17.70;;;;;;;1.57;83.41;97866.13;126941;1307;107475;-75
2021/11/29 02:14:40;;;;;;;33.10;17.30;;;;;;;1.58;83.00;97862.71;126920;1310;108806;-75
2021/11/29 02:17:46;;;;;;;31.50;16.60;;;;;;;1.60;83.08;97860.28;127051;1307;107734;-76
2021/11/29 02:21:08;;;;;;;33.50;16.90;;;;;;;1.58;83.36;97858.46;126836;1316;108822;-74
2021/11/29 02:24:13;;;;;;;34.30;18.00;;;;;;;1.47;83.44;97858.39;126827;1313;108799;-75
2021/11/29 02:27:19;;;;;;;32.60;17.60;;;;;;;1.42;83.56;97858.30;126676;1313;108797;-76
2021/11/29 02:30:26;;;;;;;33.30;17.30;;;;;;;1.43;83.64;97855.61;126620;1313;108737;-75
2021/11/29 02:33:32;;;;;;;31.90;17.40;;;;;;;1.39;84.01;97851.79;126937;1310;108758;-75
2021/11/29 02:36:37;;;;;;;29.30;16.40;;;;;;;1.33;84.21;97854.83;127005;1307;108926;-75
2021/11/29 02:39:43;;;;;;;28.90;15.40;;;;;;;1.32;83.98;97853.04;126687;1307;108831;-75
2021/11/29 02:42:49;;;;;;;30.80;17.20;;;;;;;1.24;84.49;97844.71;126576;1313;108913;-74
2021/11/29 02:45:54;;;;;;;31.00;16.20;;;;;;;1.17;84.67;97850.50;126633;1307;108805;-75
2021/11/29 02:49:01;;;;;;;29.10;15.30;;;;;;;1.18;84.92;97853.17;126836;1314;108838;-75
2021/11/29 02:52:09;;;;;;;29.40;15.90;;;;;;;1.21;84.29;97852.02;126836;1310;108955;-74
2021/11/29 02:55:15;;;;;;;29.80;16.30;;;;;;;1.27;84.33;97862.13;126729;1307;108936;-75
2021/11/29 02:58:20;;;;;;;25.30;14.90;;;;;;;1.34;84.38;97868.83;126919;1307;108946;-76
2021/11/29 03:01:26;;;;;;;30.60;16.30;;;;;;;1.36;84.18;97861.38;126793;1313;108829;-75
2021/11/29 03:04:33;;;;;;;28.20;15.60;;;;;;;1.37;83.98;97866.15;126906;1313;108754;-75
2021/11/29 03:07:39;;;;;;;30.40;16.20;;;;;;;1.41;83.81;97861.22;126799;1307;108723;-74
2021/11/29 03:10:44;;;;;;;24.10;14.30;;;;;;;1.46;84.27;97846.50;126578;1313;108730;-74
2021/11/29 03:13:50;;;;;;;27.10;15.70;;;;;;;1.46;84.27;97848.47;126734;1307;108921;-74
2021/11/29 03:16:56;;;;;;;23.30;13.70;;;;;;;1.46;84.27;97845.81;126709;1313;108917;-74
2021/11/29 03:20:02;;;;;;;28.60;16.20;;;;;;;1.44;84.61;97845.86;126841;1313;108919;-76
2021/11/29 03:23:07;;;;;;;31.00;16.70;;;;;;;1.38;84.37;97854.37;126962;1313;108885;-76
2021/11/29 03:26:17;;;;;;;28.70;15.80;;;;;;;1.38;84.47;97859.61;126689;1313;108922;-76
2021/11/29 03:29:24;;;;;;;26.90;14.80;;;;;;;1.43;84.16;97860.73;126888;1313;107657;-76
2021/11/29 03:32:29;;;;;;;25.10;15.30;;;;;;;1.49;84.28;97869.75;127053;1310;108428;-75
2021/11/29 03:35:36;;;;;;;26.70;16.00;;;;;;;1.42;84.33;97868.15;127043;1313;108851;-75
2021/11/29 03:38:41;;;;;;;25.80;15.20;;;;;;;1.36;84.72;97869.33;126864;1310;107429;-75
2021/11/29 03:41:48;;;;;;;28.80;16.50;;;;;;;1.28;85.11;97866.34;126996;1313;108773;-76
2021/11/29 03:44:56;;;;;;;26.80;15.70;;;;;;;1.23;85.01;97870.05;126880;1313;109292;-76
2021/11/29 03:48:01;;;;;;;24.00;14.20;;;;;;;1.23;84.74;97870.61;127008;1307;108690;-72
2021/11/29 03:51:07;;;;;;;26.00;15.60;;;;;;;1.27;84.93;97874.00;127037;1313;108827;-72
2021/11/29 03:54:12;;;;;;;25.50;14.80;;;;;;;1.32;84.46;97869.14;127010;1313;108739;-72
2021/11/29 03:57:18;;;;;;;24.40;15.40;;;;;;;1.35;84.71;97860.40;126917;1313;108522;-75
2021/11/29 04:00:24;;;;;;;26.00;16.20;;;;;;;1.29;84.91;97851.55;127008;1307;108910;-75
2021/11/29 04:03:29;;;;;;;27.70;15.10;;;;;;;1.21;85.57;97853.63;126840;1313;108697;-78
2021/11/29 04:06:35;;;;;;;23.20;14.10;;;;;;;1.14;85.54;97855.11;126690;1313;106233;-75
2021/11/29 04:09:41;;;;;;;23.80;14.20;;;;;;;1.18;85.39;97858.27;126561;1313;107808;-76
2021/11/29 04:12:46;;;;;;;25.60;15.00;;;;;;;1.16;85.70;97864.28;126827;1313;109709;-78
2021/11/29 04:15:52;;;;;;;26.80;15.30;;;;;;;1.11;85.90;97868.61;126907;1313;107000;-78
2021/11/29 04:18:58;;;;;;;28.30;15.30;;;;;;;1.12;85.95;97874.63;126901;1307;108712;-78
2021/11/29 04:22:05;;;;;;;21.80;12.80;;;;;;;1.11;85.63;97875.77;127100;1313;108679;-76
2021/11/29 04:25:11;;;;;;;26.00;14.70;;;;;;;1.15;85.86;97879.90;127155;1308;109202;-77
2021/11/29 04:28:16;;;;;;;24.90;14.10;;;;;;;1.14;86.06;97882.10;127138;1313;108822;-77
2021/11/29 04:31:22;;;;;;;25.00;14.40;;;;;;;1.09;86.27;97885.48;127070;1313;108533;-77
2021/11/29 04:34:27;;;;;;;25.30;15.20;;;;;;;1.05;86.18;97879.67;126661;1313;108890;-78
2021/11/29 04:37:33;;;;;;;23.50;13.40;;;;;;;1.07;86.12;97878.77;127047;1307;108479;-78
2021/11/29 04:40:38;;;;;;;24.40;14.90;;;;;;;1.06;86.13;97878.00;126960;1313;107425;-78
2021/11/29 04:43:44;;;;;;;27.30;16.20;;;;;;;1.03;86.51;97888.17;126931;1313;108769;-77
2021/11/29 04:46:50;;;;;;;29.20;16.50;;;;;;;0.96;86.56;97892.98;127192;1313;107497;-80
2021/11/29 04:49:56;;;;;;;29.30;16.80;;;;;;;0.94;86.85;97892.70;127012;1313;110417;-76
2021/11/29 04:53:02;;;;;;;25.00;14.30;;;;;;;0.91;87.23;97886.49;127007;1313;109036;-77
2021/11/29 04:56:08;;;;;;;27.40;16.10;;;;;;;0.94;86.80;97885.70;127064;1313;108731;-77
2021/11/29 04:59:13;;;;;;;42.00;21.90;;;;;;;0.94;86.83;97885.51;127037;1313;108791;-75
2021/11/29 05:02:18;;;;;;;34.70;18.00;;;;;;;0.89;87.21;97893.66;126980;1313;108750;-75
2021/11/29 05:05:24;;;;;;;31.40;17.80;;;;;;;0.88;86.86;97895.36;127004;1313;107704;-76
2021/11/29 05:08:30;;;;;;;28.60;15.40;;;;;;;0.94;87.15;97890.79;126888;1314;109046;-77
2021/11/29 05:11:36;;;;;;;31.80;17.60;;;;;;;0.93;87.20;97893.61;127047;1313;108892;-77
2021/11/29 05:14:42;;;;;;;55.00;24.40;;;;;;;0.91;87.08;97893.52;126895;1314;107732;-76
2021/11/29 05:17:47;;;;;;;33.50;17.70;;;;;;;0.92;86.83;97901.99;126560;1313;108917;-77
2021/11/29 05:20:53;;;;;;;74.00;34.50;;;;;;;0.93;87.08;97914.35;126787;1313;107568;-77
2021/11/29 05:23:58;;;;;;;29.70;16.10;;;;;;;0.95;86.69;97926.77;126612;1313;106984;-76
2021/11/29 05:27:04;;;;;;;30.90;16.30;;;;;;;1.03;86.86;97930.33;126602;1313;108596;-77
2021/11/29 05:30:11;;;;;;;28.60;15.80;;;;;;;1.09;86.41;97924.44;126612;1312;107497;-76
2021/11/29 05:33:16;;;;;;;31.20;16.00;;;;;;;1.10;86.70;97923.11;126840;1313;108731;-76
2021/11/29 05:36:21;;;;;;;27.20;15.00;;;;;;;1.05;86.48;97926.08;126656;1313;108723;-76
2021/11/29 05:39:27;;;;;;;28.00;14.90;;;;;;;1.00;86.80;97922.70;126593;1307;106986;-76
2021/11/29 05:42:32;;;;;;;29.70;15.60;;;;;;;1.01;86.88;97925.44;126563;1313;108951;-77
2021/11/29 05:45:40;;;;;;;29.60;14.50;;;;;;;0.99;87.13;97927.76;126708;1313;108930;-78
2021/11/29 05:48:45;;;;;;;29.30;16.10;;;;;;;0.92;87.40;97927.77;126937;1313;107630;-78
2021/11/29 05:51:51;;;;;;;28.80;16.30;;;;;;;0.87;87.44;97926.49;126864;1313;108921;-77
2021/11/29 05:54:56;;;;;;;27.00;14.10;;;;;;;0.91;87.15;97922.21;126717;1307;108673;-78
2021/11/29 05:58:02;;;;;;;27.40;15.40;;;;;;;0.95;86.96;97921.85;126857;1307;108732;-78
2021/11/29 06:01:07;;;;;;;30.20;15.70;;;;;;;0.96;86.96;97922.44;126740;1311;108993;-78
2021/11/29 06:04:13;;;;;;;33.40;17.10;;;;;;;0.94;87.10;97925.06;126613;1307;108777;-78
2021/11/29 06:07:19;;;;;;;29.10;15.90;;;;;;;0.89;87.49;97923.95;126568;1313;108719;-78
2021/11/29 06:10:25;;;;;;;31.50;15.00;;;;;;;0.83;87.50;97930.49;126785;1313;108941;-78
2021/11/29 06:13:30;;;;;;;32.10;16.90;;;;;;;0.84;87.43;97936.86;126959;1313;107884;-77
2021/11/29 06:16:36;;;;;;;34.70;17.00;;;;;;;0.84;87.49;97946.12;126718;1313;108814;-74
2021/11/29 06:19:41;;;;;;;35.70;17.10;;;;;;;0.83;87.66;97943.51;126706;1307;108880;-77
2021/11/29 06:22:47;;;;;;;32.90;17.30;;;;;;;0.84;87.59;97951.05;126851;1313;109060;-77
2021/11/29 06:25:52;;;;;;;33.10;17.30;;;;;;;0.87;87.60;97947.65;126991;1307;108951;-77
2021/11/29 06:28:58;;;;;;;34.90;17.60;;;;;;;0.89;87.71;97942.04;126980;1307;109072;-80
2021/11/29 06:32:04;;;;;;;37.80;18.70;;;;;;;0.91;87.55;97931.69;127013;1313;108798;-75
2021/11/29 06:35:11;;;;;;;38.10;18.30;;;;;;;0.88;87.83;97933.03;127037;1313;108995;-76
2021/11/29 06:38:18;;;;;;;65.80;28.70;;;;;;;0.85;87.76;97932.23;127066;1313;109018;-76
2021/11/29 06:41:24;;;;;;;37.30;17.30;;;;;;;0.85;87.95;97936.05;127009;1307;108693;-75
2021/11/29 06:44:30;;;;;;;35.60;17.70;;;;;;;0.91;87.53;97949.70;126998;1311;108762;-76
2021/11/29 06:47:37;;;;;;;37.30;17.90;;;;;;;0.95;87.45;97953.65;127039;1307;108742;-81
2021/11/29 06:50:43;;;;;;;36.00;17.50;;;;;;;0.98;87.42;97952.84;127088;1310;108823;-77
2021/11/29 06:53:49;;;;;;;36.30;16.80;;;;;;;0.99;87.34;97955.54;127055;1308;108967;-77
2021/11/29 06:56:55;;;;;;;34.10;16.80;;;;;;;1.01;87.41;97958.55;127028;1307;108778;-77
2021/11/29 07:00:00;;;;;;;34.60;16.60;;;;;;;1.01;87.19;97961.98;126691;1307;108723;-76
2021/11/29 07:03:06;;;;;;;36.30;17.10;;;;;;;0.99;87.26;97969.55;126647;1307;108968;-77
2021/11/29 07:06:12;;;;;;;36.00;16.40;;;;;;;0.98;87.10;97975.31;126656;1307;108940;-77
2021/11/29 07:09:17;;;;;;;40.30;16.70;;;;;;;1.01;87.26;97987.55;126849;1311;108747;-77
2021/11/29 07:12:22;;;;;;;34.20;16.80;;;;;;;1.03;87.30;97998.05;126876;1313;108857;-77
2021/11/29 07:15:30;;;;;;;32.90;15.30;;;;;;;1.06;87.22;97999.16;126957;1313;108707;-78
2021/11/29 07:18:36;;;;;;;33.30;16.20;;;;;;;1.08;87.12;98000.17;127015;1313;108775;-76
2021/11/29 07:21:41;;;;;;;36.60;15.70;;;;;;;0.99;87.17;97997.05;127023;1307;108742;-77
2021/11/29 07:24:47;;;;;;;29.50;15.10;;;;;;;0.99;87.09;98002.48;127004;1311;108925;-77
2021/11/29 07:27:53;;;;;;;34.30;16.30;;;;;;;1.02;87.21;97996.09;126602;1307;109073;-77
2021/11/29 07:30:58;;;;;;;33.20;15.60;;;;;;;1.02;87.26;97997.45;126655;1307;108888;-77
2021/11/29 07:34:04;;;;;;;36.70;16.50;;;;;;;0.97;87.13;97995.33;126949;1307;108814;-77
2021/11/29 07:37:09;;;;;;;31.50;14.30;;;;;;;1.00;87.10;98003.26;127028;1314;108465;-77
2021/11/29 07:40:15;;;;;;;33.80;15.90;;;;;;;1.06;86.95;98008.31;127063;1313;108440;-78
2021/11/29 07:43:21;;;;;;;29.10;15.10;;;;;;;1.13;86.88;98010.75;126969;1313;109007;-77
2021/11/29 07:46:26;;;;;;;35.70;15.80;;;;;;;1.13;86.62;98015.88;126742;1307;108717;-77
2021/11/29 07:49:31;;;;;;;36.40;15.60;;;;;;;1.08;86.78;98020.67;126953;1307;108795;-78
2021/11/29 07:52:37;;;;;;;31.40;14.30;;;;;;;1.10;86.81;98026.48;126867;1307;108738;-77
2021/11/29 07:55:43;;;;;;;32.00;15.30;;;;;;;1.20;86.75;98032.89;126577;1307;109010;-77
2021/11/29 07:58:48;;;;;;;32.60;15.30;;;;;;;1.22;86.60;98035.96;126583;1306;107520;-76
2021/11/29 08:01:54;;;;;;;35.70;16.60;;;;;;;1.21;86.50;98047.12;126610;1307;108756;-76
2021/11/29 08:05:00;;;;;;;32.70;15.80;;;;;;;1.13;86.73;98046.28;126809;1312;108733;-78
2021/11/29 08:08:07;;;;;;;47.70;21.90;;;;;;;1.06;86.86;98050.44;126606;1307;108731;-78
2021/11/29 08:11:12;;;;;;;31.20;15.40;;;;;;;1.07;87.03;98048.59;126933;1313;108689;-78
2021/11/29 08:14:18;;;;;;;46.10;21.70;;;;;;;1.09;86.88;98041.02;127029;1307;108639;-77
2021/11/29 08:17:24;;;;;;;41.60;18.10;;;;;;;1.12;86.83;98042.39;126931;1307;108912;-76
2021/11/29 08:20:29;;;;;;;34.50;16.20;;;;;;;1.11;86.81;98048.04;126597;1307;108603;-77
2021/11/29 08:23:35;;;;;;;32.60;14.90;;;;;;;1.13;86.84;98047.82;126875;1306;108680;-77
2021/11/29 08:26:40;;;;;;;35.10;18.50;;;;;;;1.16;86.83;98045.60;127028;1313;108755;-77
2021/11/29 08:29:46;;;;;;;34.30;16.10;;;;;;;1.17;86.84;98046.92;126915;1306;108561;-77
2021/11/29 08:32:53;;;;;;;35.10;16.50;;;;;;;1.17;86.94;98042.55;126945;1307;108709;-78
2021/11/29 08:35:58;;;;;;;34.20;15.30;;;;;;;1.14;86.75;98043.75;126589;1307;108785;-77
2021/11/29 08:39:05;;;;;;;28.70;14.40;;;;;;;1.16;86.75;98041.59;126552;1307;108879;-77
2021/11/29 08:42:10;;;;;;;30.90;15.50;;;;;;;1.20;86.86;98039.65;126993;1307;108768;-78
2021/11/29 08:45:16;;;;;;;30.30;15.10;;;;;;;1.16;86.86;98037.95;126866;1307;108975;-78
2021/11/29 08:48:24;;;;;;;31.00;15.90;;;;;;;1.12;86.98;98032.93;126711;1310;108771;-77
2021/11/29 08:51:29;;;;;;;29.70;15.10;;;;;;;1.09;87.20;98041.06;126967;1307;109005;-77
2021/11/29 08:54:37;;;;;;;28.30;13.80;;;;;;;1.03;87.37;98043.80;126676;1313;108902;-78
2021/11/29 08:57:43;;;;;;;28.20;14.70;;;;;;;1.07;87.34;98050.84;126694;1306;108827;-78
2021/11/29 09:00:52;;;;;;;26.60;13.60;;;;;;;1.08;87.24;98061.85;126619;1307;108786;-78
2021/11/29 09:03:57;;;;;;;28.20;14.90;;;;;;;1.08;87.16;98062.21;126587;1307;108775;-77
2021/11/29 09:07:03;;;;;;;27.00;14.10;;;;;;;1.10;87.18;98068.63;126592;1307;108847;-78
2021/11/29 09:10:10;;;;;;;22.80;12.70;;;;;;;1.15;87.19;98069.02;126661;1307;109024;-77
2021/11/29 09:13:16;;;;;;;27.90;14.50;;;;;;;1.19;87.15;98070.61;126815;1307;108763;-77
2021/11/29 09:16:22;;;;;;;25.30;13.90;;;;;;;1.16;87.07;98062.27;126903;1311;108855;-78
2021/11/29 09:19:28;;;;;;;29.30;14.70;;;;;;;1.16;87.05;98058.55;126720;1307;108878;-78
2021/11/29 09:22:33;;;;;;;24.90;13.00;;;;;;;1.17;87.12;98058.83;126672;1307;108616;-77
2021/11/29 09:25:42;;;;;;;23.40;12.10;;;;;;;1.20;87.01;98053.15;126785;1307;109013;-78
2021/11/29 09:28:48;;;;;;;24.40;13.90;;;;;;;1.22;87.06;98057.40;126781;1310;109018;-77
2021/11/29 09:31:53;;;;;;;23.50;13.40;;;;;;;1.22;87.08;98057.38;126731;1313;109150;-77
2021/11/29 09:34:58;;;;;;;26.50;13.70;;;;;;;1.23;86.86;98051.14;126521;1309;108770;-76
2021/11/29 09:38:05;;;;;;;22.70;12.50;;;;;;;1.31;86.97;98041.94;126863;1310;108703;-77
2021/11/29 09:41:10;;;;;;;22.00;12.70;;;;;;;1.33;86.77;98038.08;126587;1310;108746;-77
2021/11/29 09:44:16;;;;;;;23.50;12.90;;;;;;;1.32;86.65;98034.69;126970;1310;107703;-77
2021/11/29 09:47:24;;;;;;;21.60;11.70;;;;;;;1.34;86.82;98040.95;126659;1310;108932;-78
2021/11/29 09:50:30;;;;;;;23.60;12.40;;;;;;;1.30;86.82;98038.38;126765;1307;107532;-78
2021/11/29 09:53:36;;;;;;;20.70;11.20;;;;;;;1.27;86.86;98033.05;126943;1307;109105;-77
2021/11/29 09:56:42;;;;;;;21.30;12.60;;;;;;;1.25;86.96;98022.54;127010;1310;108825;-78
2021/11/29 09:59:48;;;;;;;21.20;12.50;;;;;;;1.28;87.06;98020.31;127008;1307;108396;-77
2021/11/29 10:02:53;;;;;;;34.30;17.50;;;;;;;1.30;86.97;98023.69;126620;1307;108798;-76
2021/11/29 10:05:59;;;;;;;30.50;15.50;;;;;;;1.32;86.81;98027.27;126667;1307;107728;-78
2021/11/29 10:09:25;;;;;;;75.00;31.70;;;;;;;1.37;86.80;98027.73;126934;1307;109019;-77
2021/11/29 10:12:31;;;;;;;112.20;45.30;;;;;;;1.43;86.87;98025.91;126873;1306;108820;-77
2021/11/29 10:15:40;;;;;;;27.20;15.80;;;;;;;1.50;86.61;98025.86;126941;1307;108717;-77
2021/11/29 10:18:46;;;;;;;21.30;12.80;;;;;;;1.54;86.50;98034.27;126901;1310;107277;-77
2021/11/29 10:21:52;;;;;;;24.20;14.60;;;;;;;1.54;86.41;98037.56;127017;1307;106710;-78
2021/11/29 10:24:57;;;;;;;28.50;13.40;;;;;;;1.59;86.36;98038.21;127070;1306;108872;-78
2021/11/29 10:28:02;;;;;;;20.40;11.30;;;;;;;1.55;86.26;98037.17;127023;1313;108960;-78
2021/11/29 10:31:13;;;;;;;22.10;11.90;;;;;;;1.55;86.49;98031.50;126899;1307;106874;-78
2021/11/29 10:34:22;;;;;;;23.30;12.90;;;;;;;1.51;86.57;98036.52;126667;1307;108814;-78
2021/11/29 10:37:32;;;;;;;22.30;11.40;;;;;;;1.47;86.83;98036.92;126639;1307;108689;-78
2021/11/29 10:40:38;;;;;;;20.10;11.10;;;;;;;1.50;86.61;98037.27;126799;1307;108940;-78
2021/11/29 10:43:45;;;;;;;20.20;11.10;;;;;;;1.55;86.64;98032.73;126791;1310;107110;-78
2021/11/29 10:46:53;;;;;;;19.20;10.50;;;;;;;1.60;86.59;98037.05;127007;1307;107854;-77
2021/11/29 10:50:00;;;;;;;21.10;11.60;;;;;;;1.61;86.60;98033.96;126930;1307;109010;-78
2021/11/29 10:53:12;;;;;;;18.90;11.00;;;;;;;1.63;86.58;98030.64;126977;1307;107488;-78
2021/11/29 10:56:18;;;;;;;20.70;11.10;;;;;;;1.63;86.56;98029.44;127044;1307;108761;-77
2021/11/29 10:59:25;;;;;;;20.20;11.40;;;;;;;1.64;86.69;98026.98;127054;1307;108791;-78
2021/11/29 11:02:32;;;;;;;20.10;11.10;;;;;;;1.70;86.52;98034.43;126987;1307;109138;-78
2021/11/29 11:06:01;;;;;;;23.50;12.40;;;;;;;1.70;86.30;98033.06;127070;1307;108704;-78
2021/11/29 11:09:16;;;;;;;22.00;10.80;;;;;;;1.69;86.36;98038.23;127063;1307;107433;-76
2021/11/29 11:12:23;;;;;;;20.50;11.50;;;;;;;1.70;86.38;98032.35;126879;1307;108959;-77
2021/11/29 11:15:31;;;;;;;23.10;12.60;;;;;;;1.71;86.35;98033.11;126930;1307;108759;-78
2021/11/29 11:18:42;;;;;;;25.80;13.30;;;;;;;1.68;86.36;98036.73;126826;1311;109493;-77
2021/11/29 11:21:48;;;;;;;24.40;12.50;;;;;;;1.64;86.56;98031.05;126684;1313;108677;-78
2021/11/29 11:24:56;;;;;;;23.50;12.70;;;;;;;1.63;86.51;98034.95;126535;1307;108905;-77
2021/11/29 11:28:05;;;;;;;24.50;13.00;;;;;;;1.67;86.66;98032.48;126903;1307;109813;-78
2021/11/29 11:34:48;;;;;;;27.60;13.80;;;;;;;1.70;86.41;98025.40;123269;1345;635763;-78
2021/11/29 11:37:57;;;;;;;28.30;14.70;;;;;;;1.63;86.35;98028.73;125742;1326;108725;-78
2021/11/29 11:41:02;;;;;;;24.60;13.70;;;;;;;1.67;86.46;98032.15;125765;1322;108862;-78
2021/11/29 11:44:08;;;;;;;24.60;13.30;;;;;;;1.72;86.33;98032.30;125734;1320;107918;-77
2021/11/29 11:47:15;;;;;;;27.00;15.00;;;;;;;1.76;86.13;98043.52;125295;1319;244827;-78
2021/11/29 11:50:23;;;;;;;25.40;13.80;;;;;;;1.73;86.06;98039.91;125780;1319;106771;-77
2021/11/29 11:53:28;;;;;;;25.10;13.50;;;;;;;1.70;85.93;98046.20;125821;1319;108893;-78
2021/11/29 11:56:34;;;;;;;24.50;13.10;;;;;;;1.63;86.17;98043.08;126624;1306;109062;-78
2021/11/29 11:59:51;;;;;;;26.60;14.40;;;;;;;1.64;86.37;98040.63;126592;1309;109199;-78
2021/11/29 12:03:11;;;;;;;26.00;14.30;;;;;;;1.71;86.22;98045.63;126612;1306;108996;-77
2021/11/29 12:06:18;;;;;;;29.40;15.50;;;;;;;1.71;86.14;98045.98;126594;1306;108397;-77
2021/11/29 12:09:31;;;;;;;28.60;15.30;;;;;;;1.67;86.02;98045.79;126587;1307;108861;-78
2021/11/29 12:12:57;;;;;;;24.00;13.50;;;;;;;1.71;86.13;98042.05;126636;1306;107783;-77
2021/11/29 12:16:02;;;;;;;26.30;14.50;;;;;;;1.76;86.01;98050.02;126533;1309;108851;-77
2021/11/29 12:19:13;;;;;;;25.20;13.80;;;;;;;1.73;85.94;98048.71;126508;1309;108782;-77
2021/11/29 12:22:34;;;;;;;26.70;15.10;;;;;;;1.71;85.88;98052.59;126511;1309;108673;-77
2021/11/29 12:25:48;;;;;;;24.40;13.70;;;;;;;1.68;85.92;98054.50;126503;1309;108880;-77
2021/11/29 12:28:55;;;;;;;24.80;14.10;;;;;;;1.73;86.04;98056.92;126529;1309;108792;-77
2021/11/29 12:32:12;;;;;;;63.70;32.60;;;;;;;1.75;85.80;98060.45;126472;1309;108723;-77
2021/11/29 12:35:28;;;;;;;23.90;14.00;;;;;;;1.80;85.78;98066.30;126660;1306;107777;-75
2021/11/29 12:38:48;;;;;;;27.80;15.60;;;;;;;1.67;85.80;98065.94;126496;1309;108994;-79
2021/11/29 12:41:54;;;;;;;24.00;13.20;;;;;;;1.57;85.95;98067.38;126567;1309;108804;-78
2021/11/29 12:45:02;;;;;;;34.00;20.00;;;;;;;1.58;86.14;98063.71;126547;1309;109011;-77
2021/11/29 12:48:17;;;;;;;31.20;15.10;;;;;;;1.55;86.00;98061.33;126567;1309;108730;-77
2021/11/29 12:51:44;;;;;;;23.30;13.30;;;;;;;1.61;86.00;98061.14;126615;1309;109047;-78
2021/11/29 12:54:50;;;;;;;24.70;13.80;;;;;;;1.63;85.97;98063.53;126641;1312;108773;-78
2021/11/29 12:58:17;;;;;;;28.10;15.10;;;;;;;1.64;85.89;98066.59;126588;1309;109017;-77
2021/11/29 13:01:23;;;;;;;23.20;14.00;;;;;;;1.64;85.84;98068.02;126543;1309;109255;-78
2021/11/29 13:04:28;;;;;;;21.10;12.30;;;;;;;1.66;85.80;98070.48;126779;1307;108864;-77
2021/11/29 13:08:02;;;;;;;105.00;66.80;;;;;;;1.60;85.75;98070.89;126726;1306;108810;-77
2021/11/29 13:11:10;;;;;;;24.70;14.80;;;;;;;1.60;85.82;98073.13;126666;1306;108817;-78
2021/11/29 13:14:24;;;;;;;28.60;16.30;;;;;;;1.57;85.81;98073.20;127016;1306;108724;-78
2021/11/29 13:17:38;;;;;;;48.30;23.60;;;;;;;1.60;85.98;98072.40;126759;1306;108857;-77
2021/11/29 13:20:51;;;;;;;33.90;17.90;;;;;;;1.55;85.83;98070.41;126633;1306;108786;-77
2021/11/29 13:23:59;;;;;;;30.70;14.00;;;;;;;1.55;85.90;98079.00;126645;1306;109480;-77
2021/11/29 13:27:09;;;;;;;26.70;14.80;;;;;;;1.58;85.88;98080.73;126727;1306;108886;-76
2021/11/29 13:30:18;;;;;;;21.80;12.80;;;;;;;1.59;85.79;98085.86;126894;1306;108915;-78
2021/11/29 13:33:23;;;;;;;71.40;34.10;;;;;;;1.54;85.93;98092.09;127094;1306;107940;-77
2021/11/29 13:36:33;;;;;;;30.40;17.40;;;;;;;1.50;85.93;98098.08;126807;1306;108701;-74
2021/11/29 13:39:41;;;;;;;30.80;17.60;;;;;;;1.40;86.11;98096.25;126802;1306;108938;-75
2021/11/29 13:42:49;;;;;;;26.20;14.90;;;;;;;1.36;86.17;98100.15;126914;1306;108411;-77
2021/11/29 13:45:56;;;;;;;30.80;17.10;;;;;;;1.31;86.41;98098.54;126925;1306;107527;-78
2021/11/29 13:49:10;;;;;;;33.90;18.60;;;;;;;1.30;86.30;98100.67;127037;1306;108899;-77
2021/11/29 13:52:19;;;;;;;49.00;21.30;;;;;;;1.27;86.27;98098.70;127072;1309;108775;-77
2021/11/29 13:55:27;;;;;;;100.00;39.80;;;;;;;1.27;86.50;98105.92;127000;1312;108828;-78
2021/11/29 13:58:34;;;;;;;33.50;19.60;;;;;;;1.31;86.57;98107.98;126819;1313;109491;-77
2021/11/29 14:01:39;;;;;;;28.50;17.00;;;;;;;1.29;86.52;98104.99;126985;1309;108770;-78
2021/11/29 14:04:55;;;;;;;46.10;25.30;;;;;;;1.25;86.64;98111.00;126749;1309;108020;-77
2021/11/29 14:08:04;;;;;;;37.40;20.70;;;;;;;1.20;86.73;98113.94;126956;1309;108858;-77
2021/11/29 14:11:13;;;;;;;38.50;21.80;;;;;;;1.18;86.72;98120.59;126973;1306;108935;-77
2021/11/29 14:14:21;;;;;;;42.70;24.90;;;;;;;1.19;87.04;98120.88;126921;1306;108755;-77